Time;durP1;ratioP1;P1;durP2;ratioP2;P2;SDS_P1;SDS_P2;PMS_P1;PMS_P2;Temp;Humidity;BMP_temperature;BMP_pressure;BME280_temperature;BME280_humidity;BME280_pressure;Samples;Min_cycle;Max_cycle;Signal;HPM_P1;HPM_P2
2022/07/23 00:05:36;;;;;;;9.90;5.15;;;15.30;99.90;;;;;;12535413;28;20098;-37
2022/07/23 00:11:39;;;;;;;7.25;5.45;;;15.20;99.90;;;;;;12540238;28;20057;-37
2022/07/23 00:17:40;;;;;;;11.23;6.05;;;15.10;99.90;;;;;;12540527;28;20106;-33
2022/07/23 00:23:42;;;;;;;11.73;6.65;;;15.10;99.90;;;;;;12529684;28;20107;-33
2022/07/23 00:29:44;;;;;;;10.45;5.50;;;15.10;99.90;;;;;;12527253;28;20559;-33
2022/07/23 00:35:46;;;;;;;9.65;6.07;;;15.00;99.90;;;;;;12521026;28;20071;-32
2022/07/23 00:41:49;;;;;;;7.78;5.97;;;15.10;99.90;;;;;;12517449;28;20049;-37
2022/07/23 00:47:51;;;;;;;10.88;5.88;;;15.00;99.90;;;;;;12527192;28;20431;-37
2022/07/23 00:53:53;;;;;;;9.20;5.47;;;15.10;99.90;;;;;;12529027;28;20188;-33
2022/07/23 00:59:56;;;;;;;10.20;5.82;;;15.00;99.90;;;;;;12525850;28;20102;-34
2022/07/23 01:05:58;;;;;;;8.18;6.00;;;15.00;99.90;;;;;;12531712;28;20098;-37
2022/07/23 01:12:00;;;;;;;12.77;7.00;;;14.90;99.90;;;;;;12525546;28;20521;-33
2022/07/23 01:18:04;;;;;;;9.23;6.15;;;14.90;99.90;;;;;;12531337;28;20130;-38
2022/07/23 01:24:07;;;;;;;11.43;6.17;;;14.90;99.90;;;;;;12525585;28;20133;-33
2022/07/23 01:30:09;;;;;;;11.65;6.75;;;14.90;99.90;;;;;;12525836;28;20416;-34
2022/07/23 01:36:11;;;;;;;10.40;5.60;;;15.10;99.90;;;;;;12533861;28;20491;-39
2022/07/23 01:42:13;;;;;;;10.30;5.90;;;15.30;99.90;;;;;;12527777;28;20072;-37
2022/07/23 01:48:15;;;;;;;8.90;5.60;;;15.30;99.90;;;;;;12525548;28;20128;-37
2022/07/23 01:54:17;;;;;;;10.80;5.75;;;15.40;99.90;;;;;;12527354;28;20459;-33
2022/07/23 02:00:19;;;;;;;13.30;5.70;;;15.30;99.90;;;;;;12520328;28;20053;-36
2022/07/23 02:06:20;;;;;;;10.80;6.15;;;15.30;99.90;;;;;;12520284;28;20506;-39
2022/07/23 02:12:22;;;;;;;9.23;5.57;;;15.30;99.90;;;;;;12531160;28;20048;-37
2022/07/23 02:18:24;;;;;;;16.23;6.28;;;15.20;99.90;;;;;;12540497;28;20607;-34
2022/07/23 02:24:26;;;;;;;11.98;5.50;;;15.10;99.90;;;;;;12529462;28;20136;-38
2022/07/23 02:30:28;;;;;;;9.63;5.50;;;15.20;99.90;;;;;;12536311;28;20076;-33
2022/07/23 02:36:29;;;;;;;10.63;5.28;;;15.10;99.90;;;;;;12543463;28;20047;-33
2022/07/23 02:42:31;;;;;;;14.93;5.90;;;15.10;99.90;;;;;;12545502;28;20182;-37
2022/07/23 02:48:34;;;;;;;8.38;5.10;;;15.10;99.90;;;;;;12544537;28;20076;-37
2022/07/23 02:54:37;;;;;;;9.65;5.00;;;15.00;99.90;;;;;;12535820;28;20052;-33
2022/07/23 03:00:38;;;;;;;11.98;5.80;;;14.90;99.90;;;;;;12538104;28;20136;-33
2022/07/23 03:06:40;;;;;;;14.93;5.93;;;14.90;99.90;;;;;;12530131;28;20081;-33
2022/07/23 03:12:42;;;;;;;10.43;6.15;;;14.90;99.90;;;;;;12552795;28;20048;-33
2022/07/23 03:18:44;;;;;;;13.07;6.22;;;14.90;99.90;;;;;;12536804;28;20126;-33
2022/07/23 03:24:55;;;;;;;17.48;6.15;;;14.90;99.90;;;;;;12517816;28;20131;-33
2022/07/23 03:30:58;;;;;;;11.27;5.97;;;14.90;99.90;;;;;;12524496;28;20049;-37
2022/07/23 03:36:59;;;;;;;13.00;5.63;;;14.80;99.90;;;;;;12539521;28;20044;-33
2022/07/23 03:43:03;;;;;;;13.13;5.65;;;14.90;99.90;;;;;;12538839;28;20076;-33
2022/07/23 03:49:05;;;;;;;11.35;6.13;;;14.90;99.90;;;;;;12520580;28;20123;-37
2022/07/23 03:55:08;;;;;;;11.80;5.88;;;14.80;99.90;;;;;;12536592;28;20060;-33
2022/07/23 04:01:11;;;;;;;12.18;6.55;;;14.90;99.90;;;;;;12532035;28;20132;-33
2022/07/23 04:07:13;;;;;;;10.85;5.65;;;14.90;99.90;;;;;;12534048;28;20489;-33
2022/07/23 04:13:15;;;;;;;16.00;5.75;;;14.90;99.90;;;;;;12518907;28;20045;-37
2022/07/23 04:19:17;;;;;;;10.85;5.85;;;14.80;99.90;;;;;;12530583;28;20446;-33
2022/07/23 04:25:19;;;;;;;16.58;6.97;;;14.70;99.90;;;;;;12526701;28;20045;-32
2022/07/23 04:31:21;;;;;;;14.60;6.60;;;14.80;99.90;;;;;;12526892;28;20538;-33
2022/07/23 04:37:23;;;;;;;12.90;6.80;;;14.90;99.90;;;;;;12543593;28;20425;-37
2022/07/23 04:43:25;;;;;;;12.30;6.97;;;14.80;99.90;;;;;;12534738;28;20049;-37
2022/07/23 04:49:27;;;;;;;15.75;6.68;;;14.90;99.90;;;;;;12521862;28;20050;-37
2022/07/23 04:55:28;;;;;;;10.77;7.00;;;14.90;99.90;;;;;;12531436;28;20049;-37
2022/07/23 05:01:30;;;;;;;14.75;6.85;;;15.00;99.90;;;;;;12519786;28;20045;-33
2022/07/23 05:07:32;;;;;;;15.90;7.28;;;15.00;99.90;;;;;;12537211;28;20045;-38
2022/07/23 05:13:34;;;;;;;12.70;7.53;;;15.00;99.90;;;;;;12525340;28;20053;-37
2022/07/23 05:19:36;;;;;;;12.75;7.88;;;14.90;99.90;;;;;;12520760;28;20167;-33
2022/07/23 05:25:37;;;;;;;13.43;8.18;;;15.00;99.90;;;;;;12536066;28;20041;-33
2022/07/23 05:31:39;;;;;;;17.88;8.60;;;15.10;99.90;;;;;;12537516;28;20120;-33
2022/07/23 05:37:41;;;;;;;17.10;8.02;;;15.10;99.90;;;;;;12536893;28;20468;-37
2022/07/23 05:43:43;;;;;;;16.98;7.88;;;15.20;99.90;;;;;;12523281;28;20564;-33
2022/07/23 05:49:46;;;;;;;13.47;8.90;;;15.20;99.90;;;;;;12529379;28;20049;-33
2022/07/23 05:55:48;;;;;;;14.95;8.70;;;15.10;99.90;;;;;;12544917;28;20515;-37
2022/07/23 06:01:50;;;;;;;13.27;8.32;;;15.20;99.90;;;;;;12537936;28;20101;-37
2022/07/23 06:07:53;;;;;;;12.60;7.72;;;15.10;99.90;;;;;;12529011;28;20065;-37
2022/07/23 06:13:54;;;;;;;10.80;7.78;;;15.10;99.90;;;;;;12524234;28;20133;-37
2022/07/23 06:19:56;;;;;;;12.85;7.43;;;15.10;99.90;;;;;;12537186;28;20048;-37
2022/07/23 06:25:58;;;;;;;11.30;7.70;;;15.30;99.90;;;;;;12532745;28;20052;-37
2022/07/23 06:32:01;;;;;;;15.65;8.98;;;15.30;99.90;;;;;;12538478;28;20132;-33
2022/07/23 06:38:03;;;;;;;8.07;6.47;;;15.30;99.90;;;;;;12536986;28;20175;-37
2022/07/23 06:44:05;;;;;;;12.43;7.20;;;15.40;99.90;;;;;;12537539;28;20124;-33
2022/07/23 06:50:07;;;;;;;11.02;6.22;;;15.60;99.90;;;;;;12526631;28;20042;-33
2022/07/23 06:56:09;;;;;;;12.00;6.25;;;15.40;99.90;;;;;;12504914;28;20301;-37
2022/07/23 07:02:12;;;;;;;9.80;5.88;;;15.60;99.90;;;;;;12524162;28;20053;-37
2022/07/23 07:08:14;;;;;;;11.77;5.72;;;15.70;99.90;;;;;;12533868;28;20065;-33
2022/07/23 07:14:15;;;;;;;9.52;5.53;;;15.90;99.90;;;;;;12520170;28;20049;-33
2022/07/23 07:20:18;;;;;;;7.05;4.60;;;16.00;99.90;;;;;;12515788;28;20504;-33
2022/07/23 07:26:20;;;;;;;8.45;4.60;;;16.00;99.90;;;;;;12542075;28;20052;-33
2022/07/23 07:32:22;;;;;;;9.02;4.38;;;15.90;99.90;;;;;;12525073;28;20069;-37
2022/07/23 07:38:44;;;;;;;6.47;3.80;;;16.10;99.90;;;;;;12523501;28;20044;-33
2022/07/23 07:44:45;;;;;;;5.75;3.50;;;16.40;99.90;;;;;;12534253;28;20496;-39
2022/07/23 07:50:49;;;;;;;4.53;2.90;;;16.50;99.90;;;;;;12532957;28;20042;-38
2022/07/23 07:56:51;;;;;;;;;;;16.50;99.90;;;;;;12539483;28;20045;-37
2022/07/23 08:02:54;;;;;;;6.38;3.70;;;16.40;99.90;;;;;;12522966;28;20058;-37
2022/07/23 08:08:57;;;;;;;7.28;3.88;;;16.60;99.90;;;;;;12552227;22;20072;-84
2022/07/23 08:15:01;;;;;;;;;;;16.70;99.90;;;;;;12532907;28;20459;-83
2022/07/23 08:21:06;;;;;;;7.28;3.80;;;16.80;99.90;;;;;;12541317;28;20056;-83
2022/07/23 08:27:08;;;;;;;5.45;2.95;;;16.90;99.90;;;;;;12512970;28;20480;-83
2022/07/23 08:33:14;;;;;;;6.03;3.30;;;17.00;99.90;;;;;;12522142;28;20564;-83
2022/07/23 08:39:35;;;;;;;6.45;3.13;;;17.00;99.90;;;;;;12510209;28;20052;-83
2022/07/23 08:45:39;;;;;;;7.55;3.30;;;17.00;99.90;;;;;;12536993;28;20128;-84
2022/07/23 08:51:41;;;;;;;4.90;2.85;;;16.90;99.90;;;;;;12527768;28;20041;-84
2022/07/23 08:57:44;;;;;;;6.05;3.13;;;17.20;99.90;;;;;;12547595;28;20424;-83
2022/07/23 09:03:46;;;;;;;7.10;3.08;;;17.10;99.90;;;;;;12563633;28;20377;-83
2022/07/23 09:10:06;;;;;;;8.55;2.70;;;17.30;99.90;;;;;;12581956;28;20095;-84
2022/07/23 09:16:18;;;;;;;5.28;2.50;;;17.30;99.90;;;;;;12586967;28;20479;-84
2022/07/23 09:22:20;;;;;;;3.70;2.33;;;17.40;99.90;;;;;;12563295;28;20059;-85
2022/07/23 09:28:28;;;;;;;4.55;2.45;;;17.80;99.90;;;;;;12581360;28;20041;-84
2022/07/23 09:34:38;;;;;;;5.18;2.10;;;18.00;99.90;;;;;;12589988;28;20132;-83
2022/07/23 09:40:40;;;;;;;5.18;2.28;;;18.20;99.90;;;;;;12593828;28;20048;-85
2022/07/23 09:46:44;;;;;;;6.45;2.53;;;18.30;99.90;;;;;;12574764;28;20560;-84
2022/07/23 09:52:48;;;;;;;;;;;18.20;99.90;;;;;;12586571;28;20143;-83
2022/07/23 09:59:02;;;;;;;5.10;2.00;;;18.60;99.90;;;;;;12595590;28;19989;-83
2022/07/23 10:05:05;;;;;;;3.83;1.67;;;18.40;99.90;;;;;;12577282;28;20412;-84
2022/07/23 10:11:11;;;;;;;5.32;2.00;;;18.10;99.90;;;;;;12575792;28;20441;-84
2022/07/23 10:17:12;;;;;;;6.22;1.40;;;18.30;99.90;;;;;;12599373;28;20138;-83
2022/07/23 10:23:42;;;;;;;2.97;1.63;;;18.90;99.90;;;;;;12583695;28;20523;-84
2022/07/23 10:30:28;;;;;;;3.75;1.23;;;19.20;99.90;;;;;;12591102;28;20041;-84
2022/07/23 10:36:50;;;;;;;4.10;1.38;;;19.50;99.90;;;;;;12509978;28;20508;-84
2022/07/23 10:42:57;;;;;;;5.82;1.67;;;19.30;99.90;;;;;;12581339;28;20041;-85
2022/07/23 10:49:28;;;;;;;3.10;1.50;;;19.50;99.90;;;;;;12577906;28;20476;-84
2022/07/23 10:55:31;;;;;;;4.43;1.40;;;19.40;99.90;;;;;;12588407;28;20044;-85
2022/07/23 11:01:37;;;;;;;2.80;1.50;;;19.50;99.90;;;;;;12574238;28;20048;-85
2022/07/23 11:08:04;;;;;;;4.00;1.30;;;19.80;99.90;;;;;;12598511;28;20045;-85
2022/07/23 11:14:06;;;;;;;3.53;1.40;;;19.90;99.90;;;;;;12586488;28;20636;-85
2022/07/23 11:20:11;;;;;;;3.13;1.30;;;19.80;99.90;;;;;;12583217;28;20104;-84
2022/07/23 11:26:42;;;;;;;4.32;1.33;;;20.30;99.90;;;;;;12589147;28;20051;-84
2022/07/23 11:32:44;;;;;;;2.63;1.10;;;20.20;99.90;;;;;;12587312;28;20098;-85
2022/07/23 11:38:52;;;;;;;5.40;1.38;;;20.00;99.90;;;;;;12572715;28;20228;-85
2022/07/23 11:44:53;;;;;;;2.22;1.40;;;20.20;99.90;;;;;;12584828;28;20048;-85
2022/07/23 11:50:56;;;;;;;2.88;1.10;;;20.60;99.90;;;;;;12570982;28;20512;-85
2022/07/23 11:57:00;;;;;;;4.13;1.27;;;20.70;99.90;;;;;;12559404;28;20471;-85
2022/07/23 12:03:03;;;;;;;4.05;1.48;;;20.60;99.90;;;;;;12557455;28;20179;-84
2022/07/23 12:09:06;;;;;;;2.50;1.10;;;21.00;99.90;;;;;;12560635;28;20056;-85
2022/07/23 12:15:09;;;;;;;3.28;1.40;;;21.10;99.90;;;;;;12592081;28;20086;-85
2022/07/23 12:21:11;;;;;;;3.10;1.20;;;20.70;99.90;;;;;;12565891;28;20175;-85
2022/07/23 12:27:13;;;;;;;1.85;1.17;;;20.90;99.90;;;;;;12586646;28;20601;-83
2022/07/23 12:33:26;;;;;;;7.57;1.40;;;21.20;99.90;;;;;;12570738;28;20079;-85
2022/07/23 12:39:31;;;;;;;2.58;1.15;;;21.50;99.90;;;;;;12587109;28;20139;-83
2022/07/23 12:45:51;;;;;;;2.90;1.20;;;21.60;99.90;;;;;;12565602;28;20607;-85
2022/07/23 12:51:53;;;;;;;4.18;1.20;;;21.70;99.90;;;;;;12565122;28;20086;-83
2022/07/23 12:58:41;;;;;;;3.43;1.27;;;21.60;99.90;;;;;;12561747;28;20044;-85
2022/07/23 13:04:44;;;;;;;2.42;1.13;;;22.10;99.90;;;;;;12492220;28;20047;-85
2022/07/23 13:10:50;;;;;;;3.47;1.35;;;22.00;99.90;;;;;;12568068;28;20406;-84
2022/07/23 13:16:53;;;;;;;3.33;1.10;;;21.70;99.90;;;;;;12568999;28;20051;-85
2022/07/23 13:22:57;;;;;;;3.38;1.30;;;22.10;99.90;;;;;;12567909;28;20053;-83
2022/07/23 13:28:59;;;;;;;3.63;0.95;;;22.10;99.90;;;;;;12570046;28;20496;-85
2022/07/23 13:35:03;;;;;;;3.80;1.02;;;21.90;99.90;;;;;;12611057;28;20044;-85
2022/07/23 13:41:06;;;;;;;3.40;1.00;;;22.10;99.90;;;;;;12575459;28;20492;-85
2022/07/23 13:47:13;;;;;;;5.70;1.00;;;22.30;99.90;;;;;;12576211;28;20052;-84
2022/07/23 13:53:17;;;;;;;6.18;0.93;;;22.50;99.90;;;;;;12582036;28;20045;-85
2022/07/23 13:59:19;;;;;;;2.58;0.90;;;22.70;99.90;;;;;;12580738;28;20060;-84
2022/07/23 14:05:22;;;;;;;2.77;0.90;;;22.50;99.90;;;;;;12567664;28;20037;-84
2022/07/23 14:11:24;;;;;;;1.10;0.80;;;22.30;99.90;;;;;;12589304;28;20044;-84
2022/07/23 14:17:31;;;;;;;3.92;0.90;;;22.50;99.90;;;;;;12584998;28;20108;-85
2022/07/23 14:23:33;;;;;;;1.45;0.80;;;22.70;99.90;;;;;;12573195;28;20056;-85
2022/07/23 14:29:35;;;;;;;2.30;0.85;;;22.60;99.90;;;;;;12576292;28;20048;-85
2022/07/23 14:35:39;;;;;;;1.73;0.80;;;22.80;99.90;;;;;;12578552;28;20443;-85
2022/07/23 14:41:41;;;;;;;1.27;0.88;;;23.00;99.90;;;;;;12612067;28;20036;-86
2022/07/23 14:47:43;;;;;;;2.45;0.80;;;23.10;99.90;;;;;;12593925;28;20074;-85
2022/07/23 14:53:48;;;;;;;3.35;0.80;;;23.10;99.90;;;;;;12572972;28;20461;-85
2022/07/23 14:59:50;;;;;;;2.85;0.82;;;22.90;99.90;;;;;;12568274;28;20181;-85
2022/07/23 15:05:52;;;;;;;3.38;1.00;;;22.80;99.90;;;;;;12573115;28;20264;-85
2022/07/23 15:11:54;;;;;;;2.38;0.90;;;22.90;99.90;;;;;;12576853;28;20040;-85
2022/07/23 15:17:58;;;;;;;1.20;0.70;;;22.80;99.90;;;;;;12561927;28;20060;-85
2022/07/23 15:24:00;;;;;;;1.85;0.90;;;23.10;99.90;;;;;;12579544;28;20095;-86
2022/07/23 15:30:03;;;;;;;2.42;0.95;;;22.90;99.90;;;;;;12566500;28;20249;-84
2022/07/23 15:36:06;;;;;;;1.67;0.73;;;22.80;99.90;;;;;;12589167;28;20052;-86
2022/07/23 15:42:08;;;;;;;6.50;1.00;;;23.10;99.90;;;;;;12590505;28;20055;-85
2022/07/23 15:48:15;;;;;;;1.63;0.80;;;23.20;99.90;;;;;;12581820;28;20044;-85
2022/07/23 15:54:17;;;;;;;2.60;1.00;;;23.30;99.90;;;;;;12569456;28;20048;-84
2022/07/23 16:00:19;;;;;;;1.75;0.85;;;23.10;99.90;;;;;;12576667;28;20385;-84
2022/07/23 16:06:21;;;;;;;1.45;0.80;;;23.30;99.90;;;;;;12566851;28;20072;-85
2022/07/23 16:12:23;;;;;;;4.28;1.13;;;23.20;99.90;;;;;;12583223;28;20068;-86
2022/07/23 16:18:25;;;;;;;2.22;0.80;;;23.20;99.90;;;;;;12571483;28;20477;-84
2022/07/23 16:24:28;;;;;;;2.25;0.80;;;23.30;99.90;;;;;;12575190;28;20055;-85
2022/07/23 16:30:30;;;;;;;4.93;1.02;;;23.50;99.90;;;;;;12570440;28;20045;-85
2022/07/23 16:36:35;;;;;;;1.73;0.97;;;23.30;99.90;;;;;;12571157;28;20129;-85
2022/07/23 16:42:37;;;;;;;2.10;0.82;;;22.90;99.90;;;;;;12584655;28;20120;-84
2022/07/23 16:48:39;;;;;;;2.65;1.15;;;23.10;99.90;;;;;;12589434;28;20075;-84
2022/07/23 16:54:42;;;;;;;2.25;0.98;;;23.20;99.90;;;;;;12579844;28;20048;-86
2022/07/23 17:00:44;;;;;;;1.70;0.87;;;23.20;99.90;;;;;;12562281;28;20056;-84
2022/07/23 17:06:46;;;;;;;2.83;1.00;;;23.50;99.90;;;;;;12573258;28;20098;-86
2022/07/23 17:12:50;;;;;;;2.30;0.80;;;23.60;99.90;;;;;;12575961;28;20484;-85
2022/07/23 17:18:52;;;;;;;2.03;0.70;;;23.50;99.90;;;;;;12558620;28;20044;-85
2022/07/23 17:24:54;;;;;;;1.80;0.70;;;23.40;99.90;;;;;;12560057;28;20048;-84
2022/07/23 17:30:56;;;;;;;1.27;0.63;;;23.70;99.90;;;;;;12555573;28;20047;-86
2022/07/23 17:36:58;;;;;;;2.42;0.90;;;23.80;99.90;;;;;;12579021;28;20123;-86
2022/07/23 17:43:00;;;;;;;3.17;1.20;;;23.90;99.90;;;;;;12587831;28;20390;-86
2022/07/23 17:49:02;;;;;;;1.77;0.70;;;23.80;99.90;;;;;;12576115;28;20052;-85
2022/07/23 17:55:05;;;;;;;1.60;0.90;;;23.70;99.90;;;;;;12572359;28;20178;-85
2022/07/23 18:01:06;;;;;;;1.30;0.70;;;24.00;99.90;;;;;;12581957;28;20041;-85
2022/07/23 18:07:08;;;;;;;2.28;0.70;;;24.30;99.90;;;;;;12590086;28;20060;-85
2022/07/23 18:13:10;;;;;;;2.10;0.70;;;24.30;99.90;;;;;;12595477;28;20089;-86
2022/07/23 18:19:12;;;;;;;2.00;0.90;;;23.70;99.90;;;;;;12573241;28;20048;-85
2022/07/23 18:25:15;;;;;;;3.13;0.90;;;23.00;99.90;;;;;;12588249;28;20504;-86
2022/07/23 18:31:17;;;;;;;2.45;0.90;;;22.20;99.90;;;;;;12566717;28;20167;-86
2022/07/23 18:37:20;;;;;;;4.50;1.15;;;21.80;99.90;;;;;;12589958;28;20049;-85
2022/07/23 18:43:35;;;;;;;1.75;0.80;;;21.50;99.90;;;;;;12584346;28;20449;-85
2022/07/23 18:49:37;;;;;;;1.42;0.95;;;21.30;99.90;;;;;;12595424;28;20170;-85
2022/07/23 18:55:39;;;;;;;5.10;0.82;;;21.20;99.90;;;;;;12590942;28;20162;-84
2022/07/23 19:01:45;;;;;;;2.15;1.10;;;20.90;99.90;;;;;;12565393;28;20064;-85
2022/07/23 19:07:48;;;;;;;1.35;0.80;;;20.90;99.90;;;;;;12569774;28;20048;-85
2022/07/23 19:13:49;;;;;;;4.82;1.00;;;20.70;99.90;;;;;;12560676;28;20045;-85
2022/07/23 19:19:51;;;;;;;1.55;0.70;;;20.60;99.90;;;;;;12593747;28;20070;-85
2022/07/23 19:25:53;;;;;;;4.25;0.85;;;20.50;99.90;;;;;;12592896;28;20118;-85
2022/07/23 19:31:55;;;;;;;1.38;0.80;;;20.40;99.90;;;;;;12564968;28;20127;-85
2022/07/23 19:37:57;;;;;;;1.52;0.77;;;20.40;99.90;;;;;;12597105;28;20032;-85
2022/07/23 19:43:59;;;;;;;1.80;0.93;;;20.30;99.90;;;;;;12596325;28;20040;-85
2022/07/23 19:50:02;;;;;;;3.17;1.52;;;20.10;99.90;;;;;;12579003;28;20073;-85
2022/07/23 19:56:04;;;;;;;3.97;0.80;;;20.00;99.90;;;;;;12571927;28;20132;-85
2022/07/23 20:02:07;;;;;;;1.50;1.00;;;19.90;99.90;;;;;;12567201;28;20135;-84
2022/07/23 20:08:09;;;;;;;3.47;1.05;;;19.70;99.90;;;;;;12563931;28;20419;-85
2022/07/23 20:14:18;;;;;;;3.15;0.93;;;19.50;99.90;;;;;;12586295;28;20407;-84
2022/07/23 20:20:20;;;;;;;1.73;1.00;;;19.40;99.90;;;;;;12567939;28;20097;-85
2022/07/23 20:26:21;;;;;;;3.05;0.85;;;19.30;99.90;;;;;;12569307;28;20128;-85
2022/07/23 20:32:23;;;;;;;2.35;1.15;;;19.20;99.90;;;;;;12567774;28;20135;-84
2022/07/23 20:38:26;;;;;;;5.15;1.10;;;19.00;99.90;;;;;;12569263;28;20186;-85
2022/07/23 20:44:28;;;;;;;2.22;1.00;;;18.80;99.90;;;;;;12573733;28;20044;-85
2022/07/23 20:50:30;;;;;;;2.72;1.08;;;18.80;99.90;;;;;;12580410;28;20045;-84
2022/07/23 20:56:32;;;;;;;4.93;1.20;;;18.60;99.90;;;;;;12585384;28;20090;-86
2022/07/23 21:02:34;;;;;;;2.95;1.10;;;18.60;99.90;;;;;;12585874;28;20037;-84
2022/07/23 21:08:36;;;;;;;2.95;1.20;;;18.40;99.90;;;;;;12589812;28;20076;-84
2022/07/23 21:14:38;;;;;;;3.40;1.05;;;18.40;99.90;;;;;;12589507;28;20491;-85
2022/07/23 21:27:00;;;;;;;2.30;1.30;;;18.00;99.90;;;;;;12591726;28;20397;-84
2022/07/23 21:33:08;;;;;;;4.80;2.03;;;17.80;99.90;;;;;;12594115;28;20036;-84
2022/07/23 21:39:10;;;;;;;9.00;3.05;;;17.80;99.90;;;;;;12602990;28;20072;-84
2022/07/23 21:45:12;;;;;;;5.80;2.45;;;17.80;99.90;;;;;;12573419;28;20079;-85
2022/07/23 21:51:14;;;;;;;6.70;2.60;;;17.80;99.90;;;;;;12580661;28;20060;-85
2022/07/23 21:57:16;;;;;;;5.45;2.58;;;17.80;99.90;;;;;;12579976;28;20044;-84
2022/07/23 22:03:18;;;;;;;3.65;2.10;;;17.80;99.90;;;;;;12597310;28;20032;-84
2022/07/23 22:09:19;;;;;;;4.95;1.95;;;17.60;99.90;;;;;;12594937;28;20141;-84
2022/07/23 22:15:22;;;;;;;4.15;1.88;;;17.60;99.90;;;;;;12586381;28;20093;-86
2022/07/23 22:21:24;;;;;;;2.22;1.20;;;17.60;99.90;;;;;;12580072;28;20040;-84
2022/07/23 22:27:46;;;;;;;3.72;1.70;;;17.60;99.90;;;;;;12596906;28;20098;-85
2022/07/23 22:33:47;;;;;;;3.72;1.45;;;17.50;99.90;;;;;;12571545;28;20139;-84
2022/07/23 22:39:49;;;;;;;3.92;1.70;;;17.30;99.90;;;;;;12575064;28;20117;-85
2022/07/23 22:45:51;;;;;;;4.15;1.65;;;17.20;99.90;;;;;;12581045;28;20036;-85
2022/07/23 22:51:53;;;;;;;4.90;1.50;;;17.10;99.90;;;;;;12592080;28;20045;-84
2022/07/23 22:57:56;;;;;;;3.15;1.45;;;17.10;99.90;;;;;;12587615;28;20055;-84
2022/07/23 23:03:58;;;;;;;2.75;1.38;;;17.10;99.90;;;;;;12594308;28;20106;-84
2022/07/23 23:10:00;;;;;;;2.78;1.58;;;17.10;99.90;;;;;;12590270;28;20197;-84
2022/07/23 23:16:02;;;;;;;4.22;1.70;;;17.00;99.90;;;;;;12591515;28;20049;-84
2022/07/23 23:22:04;;;;;;;3.50;1.50;;;17.10;99.90;;;;;;12589648;28;20116;-84
2022/07/23 23:28:06;;;;;;;3.10;1.67;;;17.00;99.90;;;;;;12577689;28;20467;-84
2022/07/23 23:34:08;;;;;;;4.18;1.45;;;17.00;99.90;;;;;;12581031;28;20529;-84
2022/07/23 23:40:10;;;;;;;4.57;1.55;;;16.90;99.90;;;;;;12585019;28;20198;-84
2022/07/23 23:46:12;;;;;;;4.00;2.03;;;16.80;99.90;;;;;;12572747;28;20124;-84
2022/07/23 23:52:14;;;;;;;3.88;1.58;;;16.80;99.90;;;;;;12576259;28;20130;-84
2022/07/23 23:58:16;;;;;;;2.58;1.50;;;16.70;99.90;;;;;;12574588;28;20155;-84
